createdAt,value
2019-04-22T00:02:13.809Z,27.77
2019-04-22T00:08:03.173Z,27.33
2019-04-22T00:13:25.998Z,23.53
2019-04-22T00:18:56.299Z,26.12
2019-04-22T00:24:01.202Z,28.70
2019-04-22T00:34:42.691Z,22.40
2019-04-22T00:39:58.889Z,23.67
2019-04-22T00:45:41.812Z,28.53
2019-04-22T00:50:51.504Z,25.60
2019-04-22T01:01:31.831Z,23.67
2019-04-22T01:06:51.330Z,26.30
2019-04-22T01:12:13.637Z,23.93
2019-04-22T01:17:36.352Z,21.47
2019-04-22T01:22:52.141Z,19.97
2019-04-22T01:28:01.983Z,23.57
2019-04-22T01:33:16.056Z,18.70
2019-04-22T01:38:51.191Z,25.07
2019-04-22T01:44:21.556Z,23.67
2019-04-22T01:49:33.927Z,19.07
2019-04-22T01:54:54.619Z,22.60
2019-04-22T02:00:06.806Z,19.90
2019-04-22T02:05:35.786Z,21.68
2019-04-22T02:11:02.338Z,22.87
2019-04-22T02:16:23.112Z,22.93
2019-04-22T02:21:38.218Z,21.07
2019-04-22T02:26:56.794Z,24.73
2019-04-22T02:32:43.944Z,21.53
2019-04-22T02:37:35.342Z,21.30
2019-04-22T02:43:12.662Z,19.80
2019-04-22T02:54:15.143Z,23.10
2019-04-22T02:59:12.446Z,16.80
2019-04-22T03:04:37.479Z,19.60
2019-04-22T03:09:50.743Z,17.03
2019-04-22T03:20:24.806Z,17.77
2019-04-22T03:31:40.336Z,20.40
2019-04-22T03:42:05.658Z,22.73
2019-04-22T03:47:32.075Z,20.77
2019-04-22T03:52:39.120Z,14.73
2019-04-22T04:24:59.927Z,16.80
2019-04-22T04:40:46.157Z,15.08
2019-04-22T04:46:06.124Z,11.60
2019-04-22T04:56:46.617Z,16.10
2019-04-22T05:02:17.418Z,9.93
2019-04-22T05:18:08.674Z,10.13
2019-04-22T05:28:44.957Z,11.17
2019-04-22T05:34:04.356Z,10.50
2019-04-22T05:39:37.026Z,7.67
2019-04-22T05:44:41.127Z,10.77
2019-04-22T05:50:02.241Z,9.77
2019-04-22T05:55:26.818Z,7.47
2019-04-22T06:01:13.110Z,9.08
2019-04-22T06:06:07.789Z,8.87
2019-04-22T06:11:25.655Z,8.37
2019-04-22T06:16:45.783Z,7.37
2019-04-22T06:22:12.834Z,10.87
2019-04-22T06:27:31.009Z,7.23
2019-04-22T06:32:47.299Z,9.57
2019-04-22T06:38:28.214Z,7.10
2019-04-22T06:43:29.594Z,6.40
2019-04-22T06:48:48.961Z,11.37
2019-04-22T06:54:07.297Z,7.27
2019-04-22T06:59:34.414Z,8.20
2019-04-22T07:04:55.148Z,6.63
2019-04-22T07:10:23.217Z,7.70
2019-04-22T07:20:57.858Z,7.20
2019-04-22T07:31:41.125Z,5.20
2019-04-22T07:37:18.211Z,7.20
2019-04-22T07:42:19.188Z,8.90
2019-04-22T07:52:51.459Z,5.63
2019-04-22T07:58:18.591Z,6.30
2019-04-22T08:03:49.974Z,7.50
2019-04-22T08:09:01.838Z,6.13
2019-04-22T08:14:14.209Z,11.70
2019-04-22T08:19:35.467Z,10.67
2019-04-22T08:24:56.138Z,11.70
2019-04-22T08:30:20.375Z,8.37
2019-04-22T08:35:52.270Z,6.03
2019-04-22T08:46:40.425Z,11.47
2019-04-22T08:52:01.330Z,7.07
2019-04-22T08:57:31.864Z,10.50
2019-04-22T09:02:46.772Z,7.75
2019-04-22T09:08:09.355Z,6.23
2019-04-22T09:13:26.371Z,9.30
2019-04-22T09:18:59.596Z,6.17
2019-04-22T09:24:06.835Z,8.80
2019-04-22T09:29:26.994Z,8.33
2019-04-22T09:34:56.281Z,8.23
2019-04-22T09:40:11.899Z,9.33
2019-04-22T09:45:21.615Z,8.10
2019-04-22T09:56:04.003Z,9.03
2019-04-22T10:06:40.578Z,10.73
2019-04-22T10:12:02.569Z,9.17
2019-04-22T10:17:26.179Z,9.83
2019-04-22T10:28:14.732Z,8.93
2019-04-22T10:33:25.803Z,9.57
2019-04-22T10:38:26.285Z,11.17
2019-04-22T10:43:45.385Z,10.80
2019-04-22T10:49:04.291Z,7.23
2019-04-22T10:54:23.341Z,5.53
2019-04-22T10:59:42.668Z,8.07
2019-04-22T11:05:02.052Z,16.17
2019-04-22T11:10:41.218Z,8.27
2019-04-22T11:15:42.511Z,10.57
2019-04-22T11:21:01.921Z,11.10
2019-04-22T11:26:21.915Z,11.53
2019-04-22T11:31:42.414Z,9.37
2019-04-22T11:37:01.120Z,7.37
2019-04-22T11:42:20.440Z,6.10
2019-04-22T11:47:39.374Z,7.23
2019-04-22T11:52:58.604Z,6.07
2019-04-22T11:58:17.274Z,5.03
2019-04-22T12:03:35.970Z,5.92
2019-04-22T12:08:54.591Z,8.93
2019-04-22T12:14:13.959Z,5.30
2019-04-22T12:19:33.478Z,8.63
2019-04-22T12:24:54.403Z,6.63
2019-04-22T12:30:14.823Z,5.12
2019-04-22T12:35:34.583Z,6.77
2019-04-22T12:41:00.252Z,5.17
2019-04-22T12:46:16.330Z,3.77
2019-04-22T12:51:36.645Z,6.53
2019-04-22T12:56:55.751Z,8.50
2019-04-22T13:02:15.486Z,6.87
2019-04-22T13:07:34.096Z,6.43
2019-04-22T13:12:55.125Z,11.47
2019-04-22T13:18:26.169Z,5.73
2019-04-22T13:23:34.121Z,9.87
2019-04-22T13:28:52.596Z,5.07
2019-04-22T13:34:24.004Z,13.40
2019-04-22T13:39:34.900Z,6.13
2019-04-22T13:44:53.615Z,9.87
2019-04-22T13:50:49.902Z,10.13
2019-04-22T13:55:56.617Z,5.37
2019-04-22T14:00:56.621Z,5.83
2019-04-22T14:06:16.443Z,6.90
2019-04-22T14:11:43.906Z,14.43
2019-04-22T14:16:55.533Z,9.07
2019-04-22T14:22:14.078Z,5.87
2019-04-22T14:27:46.179Z,6.90
2019-04-22T14:32:54.105Z,4.33
2019-04-22T14:38:14.098Z,6.37
2019-04-22T14:44:02.343Z,5.00
2019-04-22T14:49:19.491Z,4.53
2019-04-22T14:54:26.816Z,4.03
2019-04-22T14:59:33.565Z,5.80
2019-04-22T15:04:52.281Z,5.67
2019-04-22T15:10:11.407Z,7.10
2019-04-22T15:15:51.111Z,5.27
2019-04-22T15:21:11.015Z,6.17
2019-04-22T15:26:30.663Z,3.87
2019-04-22T15:31:49.493Z,6.47
2019-04-22T15:37:08.420Z,5.07
2019-04-22T15:42:30.725Z,6.07
2019-04-22T15:47:48.229Z,5.17
2019-04-22T15:53:07.712Z,3.90
2019-04-22T15:58:28.038Z,4.77
2019-04-22T16:03:47.108Z,2.67
2019-04-22T16:09:11.056Z,7.37
2019-04-22T16:14:38.896Z,3.10
2019-04-22T16:19:50.927Z,3.07
2019-04-22T16:25:20.006Z,3.00
2019-04-22T16:30:39.484Z,3.77
2019-04-22T16:35:58.753Z,5.53
2019-04-22T16:41:18.825Z,4.63
2019-04-22T16:46:37.739Z,4.43
2019-04-22T16:51:56.354Z,2.67
2019-04-22T16:57:15.804Z,3.77
2019-04-22T17:02:46.505Z,4.63
2019-04-22T17:08:04.146Z,5.07
2019-04-22T17:13:26.861Z,2.93
2019-04-22T17:18:43.565Z,3.23
2019-04-22T17:24:03.565Z,4.37
2019-04-22T17:29:22.795Z,4.20
2019-04-22T17:34:41.481Z,4.13
2019-04-22T17:40:14.695Z,5.30
2019-04-22T17:45:47.703Z,4.00
2019-04-22T17:51:16.593Z,5.00
2019-04-22T17:56:27.930Z,2.77
2019-04-22T18:01:43.936Z,3.70
2019-04-22T18:07:13.364Z,2.73
2019-04-22T18:12:35.460Z,3.53
2019-04-22T18:17:55.557Z,4.23
2019-04-22T18:22:59.608Z,3.73
2019-04-22T18:28:30.316Z,4.17
2019-04-22T18:33:46.484Z,8.57
2019-04-22T18:39:16.284Z,6.67
2019-04-22T18:44:27.227Z,4.00
2019-04-22T18:49:47.605Z,4.57
2019-04-22T18:55:28.087Z,6.87
2019-04-22T19:00:41.849Z,4.53
2019-04-22T19:06:31.932Z,6.57
2019-04-22T19:11:51.719Z,4.07
2019-04-22T19:17:12.170Z,5.73
2019-04-22T19:22:25.113Z,4.13
2019-04-22T19:27:40.495Z,6.03
2019-04-22T19:33:06.194Z,5.53
2019-04-22T19:38:15.515Z,5.20
2019-04-22T19:43:46.518Z,6.30
2019-04-22T19:49:13.620Z,4.67
2019-04-22T19:54:23.278Z,7.37
2019-04-22T19:59:45.417Z,5.17
2019-04-22T20:05:23.164Z,6.07
2019-04-22T20:10:30.022Z,2.58
2019-04-22T20:15:43.327Z,2.67
2019-04-22T20:21:19.397Z,3.97
2019-04-22T20:26:40.701Z,3.37
2019-04-22T20:31:59.178Z,4.63
2019-04-22T20:37:22.279Z,2.67
2019-04-22T20:42:45.173Z,4.47
2019-04-22T20:47:52.503Z,3.00
2019-04-22T20:53:25.472Z,4.90
2019-04-22T20:58:43.185Z,4.50
2019-04-22T21:03:47.048Z,4.47
2019-04-22T21:09:18.012Z,4.67
2019-04-22T21:14:32.438Z,4.40
2019-04-22T21:20:06.901Z,6.50
2019-04-22T21:25:14.085Z,4.37
2019-04-22T21:30:41.413Z,3.62
2019-04-22T21:36:10.241Z,3.80
2019-04-22T21:41:20.440Z,2.83
2019-04-22T21:46:42.298Z,5.93
2019-04-22T21:52:00.196Z,3.40
2019-04-22T21:57:48.900Z,2.90
2019-04-22T22:03:05.665Z,6.33
2019-04-22T22:08:27.329Z,5.87
2019-04-22T22:13:38.707Z,5.83
2019-04-22T22:19:04.009Z,11.70
2019-04-22T22:24:27.237Z,8.50
2019-04-22T22:29:57.129Z,8.87
2019-04-22T22:35:03.482Z,9.27
2019-04-22T22:40:09.265Z,5.03
2019-04-22T22:45:33.874Z,5.13
2019-04-22T22:51:06.608Z,11.75
2019-04-22T22:56:25.402Z,8.57
2019-04-22T23:01:45.440Z,2.43
2019-04-22T23:07:11.419Z,2.50
2019-04-22T23:17:29.420Z,4.13
2019-04-22T23:23:09.383Z,6.37
2019-04-22T23:28:22.705Z,2.47
2019-04-22T23:33:42.402Z,4.30
2019-04-22T23:39:10.840Z,3.80
2019-04-22T23:44:24.981Z,3.83
2019-04-22T23:49:42.630Z,2.43
2019-04-22T23:55:11.506Z,6.13
